Terminal Aerodrome Forecast
Issued by NWS Central Illinois

Current Version | Previous Version | Text Only | Print | Product List | Glossary On
Versions: 1 2 3 4 5 6 7 8 9 10 11 12 13 14
000
FTUS43 KILX 282357 AAA
TAFPIA
TAF AMD
KPIA 282357Z 2900/2924 17006KT P6SM BKN150
     FM290300 16005KT P6SM VCSH SCT040 OVC100
     FM291500 19007KT P6SM VCSH BKN040=

USA.gov is the U.S. government's official web portal to all federal, state and local government web resources and services.